createdAt,value
2023-04-05T00:01:12.287Z,31.83
2023-04-05T00:03:41.196Z,32.42
2023-04-05T00:06:13.131Z,32.06
2023-04-05T00:08:41.314Z,32.32
2023-04-05T00:11:09.152Z,31.75
2023-04-05T00:13:38.070Z,32.30
2023-04-05T00:16:08.160Z,31.81
2023-04-05T00:18:38.558Z,30.58
2023-04-05T00:21:07.099Z,30.50
2023-04-05T00:23:38.349Z,30.58
2023-04-05T00:26:06.415Z,31.96
2023-04-05T00:28:34.674Z,32.28
2023-04-05T00:31:02.523Z,32.06
2023-04-05T00:33:31.673Z,31.94
2023-04-05T00:35:59.498Z,32.38
2023-04-05T00:38:27.311Z,32.73
2023-04-05T00:40:55.037Z,32.79
2023-04-05T00:43:22.977Z,32.82
2023-04-05T00:45:51.020Z,32.33
2023-04-05T00:48:18.864Z,32.99
2023-04-05T00:50:50.697Z,33.48
2023-04-05T00:53:20.186Z,33.50
2023-04-05T00:55:48.844Z,33.92
2023-04-05T00:58:19.213Z,31.87
2023-04-05T01:00:53.822Z,32.15
2023-04-05T01:03:26.218Z,32.85
2023-04-05T01:06:02.975Z,33.08
2023-04-05T01:08:38.954Z,33.05
2023-04-05T01:11:07.923Z,33.83
2023-04-05T01:13:35.734Z,33.47
2023-04-05T01:16:03.596Z,33.66
2023-04-05T01:18:33.033Z,33.87
2023-04-05T01:21:37.968Z,33.58
2023-04-05T01:24:21.068Z,33.70
2023-04-05T01:27:05.653Z,34.05
2023-04-05T01:29:49.999Z,33.65
2023-04-05T01:32:41.456Z,34.93
2023-04-05T01:35:17.771Z,34.23
2023-04-05T01:37:50.330Z,34.62
2023-04-05T01:40:20.189Z,35.46
2023-04-05T01:42:48.018Z,35.25
2023-04-05T01:45:17.250Z,35.19
2023-04-05T01:47:45.101Z,35.11
2023-04-05T01:50:13.611Z,35.22
2023-04-05T01:52:41.678Z,35.66
2023-04-05T01:55:10.193Z,35.53
2023-04-05T01:57:39.066Z,35.33
2023-04-05T02:00:08.155Z,35.14
2023-04-05T02:02:42.022Z,35.41
2023-04-05T02:05:10.502Z,35.04
2023-04-05T02:07:38.243Z,35.11
2023-04-05T02:10:07.031Z,35.61
2023-04-05T02:12:34.850Z,34.70
2023-04-05T02:15:02.620Z,34.35
2023-04-05T02:17:34.005Z,34.84
2023-04-05T02:20:04.535Z,34.54
2023-04-05T02:22:33.898Z,34.28
2023-04-05T02:25:03.482Z,34.29
2023-04-05T02:27:31.535Z,34.67
2023-04-05T02:29:59.335Z,34.56
2023-04-05T02:32:27.213Z,34.27
2023-04-05T02:34:55.275Z,34.70
2023-04-05T02:37:27.114Z,33.60
2023-04-05T02:39:55.188Z,32.63
2023-04-05T02:42:23.004Z,31.93
2023-04-05T02:44:52.380Z,32.00
2023-04-05T02:47:22.302Z,31.91
2023-04-05T02:49:59.714Z,31.50
2023-04-05T02:52:34.250Z,31.82
2023-04-05T02:55:02.153Z,31.33
2023-04-05T02:57:32.402Z,32.38
2023-04-05T03:00:08.508Z,33.44
2023-04-05T03:02:37.630Z,33.77
2023-04-05T03:05:07.863Z,33.72
2023-04-05T03:07:38.133Z,33.10
2023-04-05T03:10:10.468Z,33.94
2023-04-05T03:12:41.508Z,34.00
2023-04-05T03:15:11.768Z,33.60
2023-04-05T03:17:44.220Z,34.05
2023-04-05T03:20:14.262Z,34.35
2023-04-05T03:22:43.849Z,34.59
2023-04-05T03:25:12.902Z,34.16
2023-04-05T03:27:46.418Z,35.00
2023-04-05T03:30:17.319Z,34.38
2023-04-05T03:32:54.661Z,33.18
2023-04-05T03:35:39.539Z,32.94
2023-04-05T03:38:11.634Z,32.18
2023-04-05T03:40:46.894Z,33.22
2023-04-05T03:43:14.890Z,33.34
2023-04-05T03:45:43.103Z,33.27
2023-04-05T03:48:12.133Z,34.20
2023-04-05T03:50:40.069Z,34.96
2023-04-05T03:53:07.862Z,34.83
2023-04-05T03:55:38.040Z,35.01
2023-04-05T03:58:08.068Z,34.94
2023-04-05T04:00:37.573Z,36.12
2023-04-05T04:03:16.483Z,35.96
2023-04-05T04:05:47.734Z,36.14
2023-04-05T04:08:15.641Z,36.16
2023-04-05T04:10:44.943Z,36.51
2023-04-05T04:13:20.303Z,36.11
2023-04-05T04:15:58.904Z,36.33
2023-04-05T04:18:36.417Z,36.24
2023-04-05T04:21:25.578Z,36.64
2023-04-05T04:24:16.432Z,36.44
2023-04-05T04:27:17.057Z,36.12
2023-04-05T04:30:04.718Z,35.83
2023-04-05T04:32:52.970Z,36.06
2023-04-05T04:35:38.877Z,36.29
2023-04-05T04:38:26.115Z,37.22
2023-04-05T04:41:12.899Z,37.51
2023-04-05T04:43:55.000Z,37.86
2023-04-05T04:46:42.747Z,37.78
2023-04-05T04:49:17.249Z,37.25
2023-04-05T04:51:49.323Z,37.66
2023-04-05T04:54:22.183Z,37.05
2023-04-05T04:56:49.943Z,37.73
2023-04-05T04:59:19.140Z,38.01
2023-04-05T05:01:47.025Z,38.07
2023-04-05T05:04:14.865Z,38.80
2023-04-05T05:06:43.805Z,38.23
2023-04-05T05:09:11.886Z,38.70
2023-04-05T05:11:50.369Z,38.71
2023-04-05T05:14:19.492Z,39.09
2023-04-05T05:16:47.429Z,38.09
2023-04-05T05:19:15.413Z,38.12
2023-04-05T05:21:50.130Z,37.81
2023-04-05T05:24:18.157Z,38.37
2023-04-05T05:26:45.930Z,37.61
2023-04-05T05:29:13.646Z,38.04
2023-04-05T05:31:46.066Z,38.51
2023-04-05T05:34:13.783Z,39.10
2023-04-05T05:36:48.359Z,38.72
2023-04-05T05:39:16.712Z,39.09
2023-04-05T05:41:45.472Z,38.67
2023-04-05T05:44:13.312Z,38.68
2023-04-05T05:46:41.178Z,37.28
2023-04-05T05:49:10.438Z,36.24
2023-04-05T05:51:38.351Z,36.18
2023-04-05T05:54:06.216Z,36.85
2023-04-05T05:56:34.080Z,36.92
2023-04-05T05:59:01.950Z,35.53
2023-04-05T06:01:29.734Z,36.29
2023-04-05T06:03:57.541Z,36.36
2023-04-05T06:06:27.025Z,36.17
2023-04-05T06:08:54.816Z,36.58
2023-04-05T06:11:23.906Z,36.18
2023-04-05T06:13:52.428Z,37.67
2023-04-05T06:16:20.176Z,36.42
2023-04-05T06:18:48.557Z,36.27
2023-04-05T06:21:16.475Z,35.54
2023-04-05T06:23:45.545Z,34.86
2023-04-05T06:26:18.806Z,35.03
2023-04-05T06:28:47.958Z,35.10
2023-04-05T06:31:17.404Z,33.55
2023-04-05T06:33:45.467Z,33.39
2023-04-05T06:36:13.365Z,33.76
2023-04-05T06:38:41.073Z,33.26
2023-04-05T06:41:10.284Z,33.03
2023-04-05T06:43:38.022Z,34.05
2023-04-05T06:46:08.708Z,34.38
2023-04-05T06:48:36.478Z,33.03
2023-04-05T06:51:05.099Z,32.52
2023-04-05T06:53:32.920Z,34.20
2023-04-05T06:56:01.223Z,34.50
2023-04-05T06:58:30.852Z,34.09
2023-04-05T07:00:58.874Z,34.43
2023-04-05T07:03:26.673Z,32.79
2023-04-05T07:05:56.842Z,31.61
2023-04-05T07:08:24.996Z,30.87
2023-04-05T07:10:53.379Z,31.57
2023-04-05T07:13:23.283Z,32.24
2023-04-05T07:15:52.786Z,31.81
2023-04-05T07:18:20.973Z,31.21
2023-04-05T07:20:49.979Z,30.31
2023-04-05T07:23:20.011Z,31.08
2023-04-05T07:25:48.494Z,31.73
2023-04-05T07:28:16.437Z,32.07
2023-04-05T07:30:44.247Z,32.05
2023-04-05T07:33:13.799Z,31.71
2023-04-05T07:35:41.624Z,33.01
2023-04-05T07:38:11.379Z,32.99
2023-04-05T07:40:39.519Z,31.32
2023-04-05T07:43:07.365Z,30.25
2023-04-05T07:45:35.085Z,28.28
2023-04-05T07:48:02.805Z,27.96
2023-04-05T07:50:32.081Z,27.85
2023-04-05T07:52:59.887Z,27.34
2023-04-05T07:55:27.963Z,27.26
2023-04-05T07:57:55.941Z,27.71
2023-04-05T08:00:23.960Z,29.51
2023-04-05T08:02:51.804Z,29.11
2023-04-05T08:05:19.655Z,28.87
2023-04-05T08:07:49.109Z,27.48
2023-04-05T08:10:16.839Z,26.28
2023-04-05T08:12:44.573Z,26.58
2023-04-05T08:15:12.529Z,28.03
2023-04-05T08:17:40.383Z,28.74
2023-04-05T08:20:09.657Z,28.39
2023-04-05T08:22:37.602Z,27.68
2023-04-05T08:25:08.003Z,27.62
2023-04-05T08:27:35.853Z,27.46
2023-04-05T08:30:04.174Z,28.10
2023-04-05T08:32:33.086Z,28.92
2023-04-05T08:35:00.876Z,27.46
2023-04-05T08:37:28.761Z,26.49
2023-04-05T08:39:56.543Z,25.64
2023-04-05T08:42:31.371Z,25.75
2023-04-05T08:45:02.325Z,26.99
2023-04-05T08:47:31.046Z,24.47
2023-04-05T08:49:58.919Z,25.19
2023-04-05T08:52:26.979Z,25.49
2023-04-05T08:54:55.308Z,24.85
2023-04-05T08:57:30.117Z,24.76
2023-04-05T08:59:59.421Z,24.21
2023-04-05T09:02:28.025Z,24.81
2023-04-05T09:04:56.500Z,24.02
2023-04-05T09:07:25.025Z,22.98
2023-04-05T09:09:57.038Z,23.63
2023-04-05T09:12:26.739Z,23.91
2023-04-05T09:14:56.858Z,22.37
2023-04-05T09:17:25.101Z,21.50
2023-04-05T09:19:52.948Z,22.28
2023-04-05T09:22:20.704Z,23.14
2023-04-05T09:24:48.740Z,22.53
2023-04-05T09:27:21.634Z,22.00
2023-04-05T09:29:56.874Z,21.70
2023-04-05T09:32:28.269Z,22.15
2023-04-05T09:34:56.311Z,21.06
2023-04-05T09:37:27.497Z,19.71
2023-04-05T09:40:05.180Z,20.15
2023-04-05T09:42:44.408Z,20.80
2023-04-05T09:45:14.177Z,21.56
2023-04-05T09:47:56.465Z,22.77
2023-04-05T09:50:24.497Z,20.82
2023-04-05T09:53:07.615Z,20.16
2023-04-05T09:55:35.873Z,19.50
2023-04-05T09:58:04.330Z,18.77
2023-04-05T10:00:34.225Z,19.30
2023-04-05T10:03:02.200Z,19.36
2023-04-05T10:05:30.432Z,19.67
2023-04-05T10:07:58.199Z,20.28
2023-04-05T10:10:26.745Z,21.48
2023-04-05T10:12:55.161Z,22.30
2023-04-05T10:15:26.315Z,22.18
2023-04-05T10:18:09.847Z,20.44
2023-04-05T10:20:41.664Z,21.15
2023-04-05T10:23:13.759Z,21.66
2023-04-05T10:25:52.576Z,22.71
2023-04-05T10:28:31.470Z,20.87
2023-04-05T10:31:05.448Z,21.91
2023-04-05T10:33:42.281Z,21.33
2023-04-05T10:36:18.476Z,20.18
2023-04-05T10:39:01.707Z,19.89
2023-04-05T10:41:34.941Z,21.48
2023-04-05T10:44:12.077Z,22.77
2023-04-05T10:46:47.487Z,21.47
2023-04-05T10:49:23.586Z,20.76
2023-04-05T10:51:51.907Z,22.41
2023-04-05T10:54:21.617Z,21.19
2023-04-05T10:56:50.508Z,22.64
2023-04-05T10:59:19.736Z,21.06
2023-04-05T11:01:48.362Z,22.64
2023-04-05T11:04:16.844Z,20.99
2023-04-05T11:06:47.992Z,20.79
2023-04-05T11:09:20.397Z,21.48
2023-04-05T11:11:49.639Z,19.86
2023-04-05T11:14:22.695Z,19.87
2023-04-05T11:16:55.379Z,20.63
2023-04-05T11:19:49.690Z,20.37
2023-04-05T11:22:26.966Z,20.28
2023-04-05T11:24:57.876Z,20.42
2023-04-05T11:27:30.045Z,20.41
2023-04-05T11:29:58.835Z,19.02
2023-04-05T11:32:40.528Z,19.04
2023-04-05T11:35:13.583Z,19.83
2023-04-05T11:38:08.356Z,17.86
2023-04-05T11:40:37.817Z,17.60
2023-04-05T11:43:07.663Z,19.81
2023-04-05T11:45:36.894Z,17.74
2023-04-05T11:48:07.180Z,18.39
2023-04-05T11:50:36.648Z,18.48
2023-04-05T11:53:15.533Z,19.63
2023-04-05T11:55:45.518Z,19.19
2023-04-05T11:58:14.718Z,18.86
2023-04-05T12:00:43.148Z,19.98
2023-04-05T12:03:14.637Z,20.22
2023-04-05T12:05:53.263Z,18.12
2023-04-05T12:08:23.741Z,19.50
2023-04-05T12:10:56.335Z,19.16
2023-04-05T12:13:29.049Z,16.72
2023-04-05T12:15:59.072Z,16.61
2023-04-05T12:18:27.841Z,16.94
2023-04-05T12:20:56.043Z,16.37
2023-04-05T12:23:26.321Z,17.36
2023-04-05T12:25:56.840Z,18.89
2023-04-05T12:28:24.875Z,19.27
2023-04-05T12:30:54.127Z,18.42
2023-04-05T12:33:37.340Z,17.86
2023-04-05T12:36:07.164Z,17.66
2023-04-05T12:38:38.408Z,16.78
2023-04-05T12:41:06.675Z,16.58
2023-04-05T12:43:39.585Z,17.55
2023-04-05T12:46:18.946Z,19.17
2023-04-05T12:48:51.670Z,20.23
2023-04-05T12:51:19.461Z,18.58
2023-04-05T12:53:48.688Z,18.13
2023-04-05T12:56:17.600Z,17.52
2023-04-05T12:58:50.411Z,17.22
2023-04-05T13:01:19.177Z,16.93
2023-04-05T13:03:49.712Z,16.68
2023-04-05T13:06:17.896Z,16.28
2023-04-05T13:08:50.335Z,16.62
2023-04-05T13:11:18.136Z,17.17
2023-04-05T13:13:46.026Z,17.23
2023-04-05T13:16:14.210Z,17.30
2023-04-05T13:18:42.061Z,18.45
2023-04-05T13:21:10.093Z,18.67
2023-04-05T13:23:39.465Z,18.02
2023-04-05T13:26:09.538Z,16.90
2023-04-05T13:28:37.376Z,17.65
2023-04-05T13:31:06.375Z,18.25
2023-04-05T13:33:34.569Z,17.97
2023-04-05T13:36:02.335Z,17.42
2023-04-05T13:38:30.126Z,18.03
2023-04-05T13:40:57.918Z,18.88
2023-04-05T13:43:27.952Z,18.69
2023-04-05T13:45:55.859Z,18.33
2023-04-05T13:48:23.642Z,18.28
2023-04-05T13:50:51.488Z,18.08
2023-04-05T13:53:19.582Z,17.27
2023-04-05T13:55:47.449Z,16.88
2023-04-05T13:58:15.242Z,17.10
2023-04-05T14:00:44.497Z,17.59
2023-04-05T14:03:12.416Z,16.77
2023-04-05T14:05:40.229Z,19.08
2023-04-05T14:08:08.050Z,18.12
2023-04-05T14:10:35.899Z,18.78
2023-04-05T14:13:03.720Z,19.40
2023-04-05T14:15:31.827Z,20.34
2023-04-05T14:18:03.040Z,20.54
2023-04-05T14:20:32.884Z,19.86
2023-04-05T14:23:01.630Z,19.53
2023-04-05T14:25:29.958Z,18.86
2023-04-05T14:27:57.920Z,18.67
2023-04-05T14:30:26.106Z,18.69
2023-04-05T14:32:54.244Z,19.31
2023-04-05T14:35:23.736Z,20.12
2023-04-05T14:37:51.710Z,21.30
2023-04-05T14:40:19.797Z,19.11
2023-04-05T14:42:52.197Z,19.15
2023-04-05T14:45:20.255Z,19.24
2023-04-05T14:47:48.358Z,20.06
2023-04-05T14:50:16.520Z,18.80
2023-04-05T14:52:46.533Z,18.46
2023-04-05T14:55:16.474Z,18.08
2023-04-05T14:57:44.715Z,17.65
2023-04-05T15:00:13.919Z,17.54
2023-04-05T15:02:42.178Z,18.15
2023-04-05T15:05:10.985Z,18.03
2023-04-05T15:07:39.220Z,18.73
2023-04-05T15:10:09.424Z,18.90
2023-04-05T15:12:37.476Z,17.68
2023-04-05T15:15:06.240Z,17.33
2023-04-05T15:17:34.186Z,18.04
2023-04-05T15:20:02.162Z,18.41
2023-04-05T15:22:41.019Z,18.81
2023-04-05T15:25:12.112Z,18.78
2023-04-05T15:27:40.045Z,18.69
2023-04-05T15:30:09.297Z,18.19
2023-04-05T15:32:37.997Z,18.03
2023-04-05T15:35:07.209Z,17.35
2023-04-05T15:37:44.088Z,16.34
2023-04-05T15:40:13.619Z,17.51
2023-04-05T15:42:41.515Z,19.59
2023-04-05T15:45:10.448Z,17.96
2023-04-05T15:47:38.656Z,18.52
2023-04-05T15:50:07.168Z,17.09
2023-04-05T15:52:35.673Z,17.62
2023-04-05T15:55:04.050Z,18.52
2023-04-05T15:57:33.566Z,18.29
2023-04-05T16:00:01.580Z,17.94
2023-04-05T16:02:31.364Z,19.68
2023-04-05T16:04:59.462Z,19.57
2023-04-05T16:07:27.660Z,18.30
2023-04-05T16:09:55.706Z,18.36
2023-04-05T16:12:23.857Z,19.57
2023-04-05T16:14:53.406Z,17.89
2023-04-05T16:17:21.702Z,17.17
2023-04-05T16:19:49.990Z,17.79
2023-04-05T16:22:18.082Z,18.57
2023-04-05T16:24:46.139Z,19.86
2023-04-05T16:27:14.206Z,18.78
2023-04-05T16:29:42.212Z,18.18
2023-04-05T16:32:11.722Z,20.16
2023-04-05T16:34:39.800Z,20.49
2023-04-05T16:37:07.764Z,20.64
2023-04-05T16:39:35.798Z,21.71
2023-04-05T16:42:04.133Z,21.07
2023-04-05T16:44:32.420Z,20.51
2023-04-05T16:47:00.334Z,20.50
2023-04-05T16:49:29.841Z,20.48
2023-04-05T16:51:57.825Z,19.43
2023-04-05T16:54:25.841Z,19.53
2023-04-05T16:56:54.024Z,19.92
2023-04-05T16:59:22.226Z,20.04
2023-04-05T17:01:50.445Z,20.38
2023-04-05T17:04:18.724Z,20.28
2023-04-05T17:06:48.192Z,20.54
2023-04-05T17:09:16.533Z,20.93
2023-04-05T17:11:44.673Z,21.37
2023-04-05T17:14:12.788Z,21.58
2023-04-05T17:16:41.000Z,21.14
2023-04-05T17:19:09.088Z,20.86
2023-04-05T17:21:37.040Z,21.88
2023-04-05T17:24:07.028Z,23.14
2023-04-05T17:26:35.290Z,22.16
2023-04-05T17:29:03.505Z,23.04
2023-04-05T17:31:33.384Z,22.72
2023-04-05T17:34:01.955Z,22.40
2023-04-05T17:36:30.032Z,22.95
2023-04-05T17:38:58.175Z,22.24
2023-04-05T17:41:27.604Z,22.96
2023-04-05T17:43:55.636Z,22.61
2023-04-05T17:46:34.043Z,23.52
2023-04-05T17:49:06.135Z,23.67
2023-04-05T17:51:34.364Z,23.81
2023-04-05T17:54:02.339Z,22.78
2023-04-05T17:56:31.811Z,23.29
2023-04-05T17:59:00.045Z,23.25
2023-04-05T18:01:28.172Z,22.68
2023-04-05T18:03:56.436Z,23.78
2023-04-05T18:06:24.453Z,23.92
2023-04-05T18:08:52.453Z,24.12
2023-04-05T18:11:20.448Z,23.90
2023-04-05T18:13:49.770Z,24.04
2023-04-05T18:16:17.776Z,24.35
2023-04-05T18:18:45.740Z,24.01
2023-04-05T18:21:13.664Z,23.69
2023-04-05T18:23:41.941Z,23.99
2023-04-05T18:26:09.984Z,23.66
2023-04-05T18:28:37.949Z,23.57
2023-04-05T18:31:09.415Z,23.87
2023-04-05T18:33:39.356Z,23.73
2023-04-05T18:36:07.837Z,23.86
2023-04-05T18:38:35.806Z,22.68
2023-04-05T18:41:04.638Z,23.79
2023-04-05T18:43:32.810Z,23.26
2023-04-05T18:46:00.795Z,24.19
2023-04-05T18:48:30.318Z,23.45
2023-04-05T18:50:58.166Z,23.24
2023-04-05T18:53:26.289Z,23.36
2023-04-05T18:55:54.556Z,23.09
2023-04-05T18:58:22.429Z,22.66
2023-04-05T19:00:50.494Z,22.99
2023-04-05T19:03:18.595Z,22.34
2023-04-05T19:05:51.774Z,23.00
2023-04-05T19:08:20.282Z,23.65
2023-04-05T19:10:48.299Z,23.28
2023-04-05T19:13:17.451Z,23.74
2023-04-05T19:15:46.133Z,24.01
2023-04-05T19:18:14.085Z,24.25
2023-04-05T19:20:42.001Z,23.51
2023-04-05T19:23:13.553Z,23.17
2023-04-05T19:25:41.684Z,23.41
2023-04-05T19:28:09.555Z,23.80
2023-04-05T19:30:40.147Z,23.76
2023-04-05T19:33:08.090Z,23.36
2023-04-05T19:35:36.415Z,23.84
2023-04-05T19:38:04.897Z,23.53
2023-04-05T19:40:34.301Z,23.96
2023-04-05T19:43:02.724Z,24.03
2023-04-05T19:45:32.072Z,23.58
2023-04-05T19:48:02.033Z,24.14
2023-04-05T19:50:47.275Z,24.27
2023-04-05T19:53:36.346Z,23.99
2023-04-05T19:56:09.199Z,23.70
2023-04-05T19:58:38.767Z,23.35
2023-04-05T20:01:08.043Z,24.43
2023-04-05T20:03:37.808Z,24.26
2023-04-05T20:06:11.096Z,23.34
2023-04-05T20:08:40.468Z,23.65
2023-04-05T20:11:13.338Z,23.85
2023-04-05T20:13:45.974Z,24.24
2023-04-05T20:16:15.859Z,23.83
2023-04-05T20:18:47.931Z,23.77
2023-04-05T20:21:17.259Z,24.37
2023-04-05T20:23:45.590Z,23.84
2023-04-05T20:26:17.245Z,23.53
2023-04-05T20:28:53.345Z,23.57
2023-04-05T20:31:23.240Z,23.65
2023-04-05T20:33:54.764Z,23.55
2023-04-05T20:36:24.460Z,23.97
2023-04-05T20:38:52.390Z,23.90
2023-04-05T20:41:21.745Z,24.22
2023-04-05T20:43:49.688Z,24.64
2023-04-05T20:46:17.794Z,25.18
2023-04-05T20:48:46.739Z,25.44
2023-04-05T20:51:15.584Z,25.85
2023-04-05T20:53:43.945Z,25.10
2023-04-05T20:56:12.727Z,25.15
2023-04-05T20:58:42.581Z,25.45
2023-04-05T21:01:11.730Z,25.02
2023-04-05T21:03:41.558Z,25.51
2023-04-05T21:06:11.214Z,25.13
2023-04-05T21:08:41.304Z,24.62
2023-04-05T21:11:10.708Z,25.06
2023-04-05T21:13:39.094Z,24.86
2023-04-05T21:16:08.873Z,25.14
2023-04-05T21:18:37.191Z,24.98
2023-04-05T21:21:05.753Z,24.94
2023-04-05T21:23:34.355Z,25.08
2023-04-05T21:26:04.173Z,25.29
2023-04-05T21:28:32.176Z,25.95
2023-04-05T21:31:00.115Z,26.59
2023-04-05T21:33:29.578Z,26.66
2023-04-05T21:35:57.482Z,26.38
2023-04-05T21:38:25.417Z,26.14
2023-04-05T21:40:55.180Z,26.19
2023-04-05T21:43:23.070Z,26.32
2023-04-05T21:45:52.805Z,27.21
2023-04-05T21:48:21.175Z,26.68
2023-04-05T21:50:50.559Z,26.41
2023-04-05T21:53:18.773Z,26.30
2023-04-05T21:55:46.653Z,26.60
2023-04-05T21:58:14.502Z,26.61
2023-04-05T22:00:42.493Z,26.28
2023-04-05T22:03:10.473Z,27.27
2023-04-05T22:05:39.026Z,27.10
2023-04-05T22:08:08.783Z,27.36
2023-04-05T22:10:37.807Z,27.41
2023-04-05T22:13:06.000Z,27.45
2023-04-05T22:15:34.372Z,27.14
2023-04-05T22:18:02.845Z,27.82
2023-04-05T22:20:31.271Z,27.93
2023-04-05T22:22:59.192Z,27.29
2023-04-05T22:25:28.596Z,28.03
2023-04-05T22:28:00.002Z,28.01
2023-04-05T22:30:28.736Z,27.23
2023-04-05T22:32:56.972Z,28.04
2023-04-05T22:35:25.028Z,27.98
2023-04-05T22:37:53.016Z,28.15
2023-04-05T22:40:26.220Z,27.88
2023-04-05T22:42:55.694Z,28.01
2023-04-05T22:45:24.979Z,28.77
2023-04-05T22:47:53.055Z,28.54
2023-04-05T22:50:21.427Z,28.42
2023-04-05T22:52:49.364Z,27.51
2023-04-05T22:55:17.525Z,28.31
2023-04-05T22:57:45.421Z,29.08
2023-04-05T23:00:15.924Z,28.59
2023-04-05T23:02:44.117Z,29.09
2023-04-05T23:05:12.997Z,27.97
2023-04-05T23:07:41.037Z,28.30
2023-04-05T23:10:09.596Z,28.41
2023-04-05T23:12:37.516Z,28.03
2023-04-05T23:15:07.839Z,28.24
2023-04-05T23:17:37.808Z,28.64
2023-04-05T23:20:07.066Z,29.02
2023-04-05T23:22:36.049Z,28.85
2023-04-05T23:25:04.364Z,28.00
2023-04-05T23:27:32.558Z,28.29
2023-04-05T23:30:00.411Z,29.02
2023-04-05T23:32:28.309Z,29.03
2023-04-05T23:34:57.644Z,28.90
2023-04-05T23:37:25.861Z,30.35
2023-04-05T23:39:53.785Z,30.76
2023-04-05T23:42:21.778Z,30.65
2023-04-05T23:44:49.658Z,30.06
2023-04-05T23:47:17.703Z,30.38
2023-04-05T23:49:45.576Z,30.69
2023-04-05T23:52:15.110Z,30.30
2023-04-05T23:54:43.014Z,31.01
2023-04-05T23:57:11.258Z,31.32
2023-04-05T23:59:39.270Z,32.00
